Aviation Digital Data Service (ADDS)

Output produced by METARs form (0334 UTC 05 June 2020)
found at http://www.aviationweather.gov/metar/data/
 
Forecast for: VTCC (CHIANG MAI(CIV/A, TH)
Text: TAF VTCC 042300Z 0500/0606 20005KT 9999 SCT035
Forecast period: 0000 UTC 05 June 2020 to 0600 UTC 06 June 2020
Forecast type: FROM: standard forecast or significant change
Winds: from the SSW (200 degrees) at 6 MPH (5 knots; 2.6 m/s)
Visibility: 6 or more miles 10+ km)
Ceiling: at least 12,000 feet AGL
Clouds: scattered clouds at 3500 feet AGL
Weather: no significant weather forecast for this period
Text: TEMPO 0508/0514 18015G30KT 4000 TSRA FEW018CB BKN025
Forecast period: 0800 to 1400 UTC 05 June 2020
Forecast type: TEMPORARY: The following changes expected for less than half the time period
Winds: from the S (180 degrees) at 17 MPH (15 knots; 7.7 m/s)
gusting to 34 MPH (30 knots; 15.4 m/s)
Visibility: 2.49 miles (4.01 km)
Ceiling: 2500 feet AGL
Clouds: few clouds at 1800 feet AGL
broken clouds at 2500 feet AGL
Weather: TSRA  (rain associated with thunderstorm(s))